Kansas City, Missouri
Traffic Map
Current Weather Conditions
Kansas City, Missouri
Clear
Clear
56°
Feels Like: 56°
Wind Chill: 56° Ceiling: Unl
Heat Index: 56° Visibility: 9mi
Dew Point: 51° Wind: 3mph
Humidity: 84% Direction: 190° (S)
Pressure: 29.98in Gusts: 0mph
Raw Report DataKMKC 191454Z 19003KT 9SM CLR 13/11 A2998 RMK AO2 SLP151 T01330106 51012
Traffic Incident Summary
Active as of:
Severity:
Category:
InformationThere was an issue retrieving the traffic information for this location. Please try a different location or try again shortly.
Advertisements
Track Severe Weather on mobile